createdAt,value
2023-08-29T00:04:12.568Z,96948.52
2023-08-29T00:07:38.313Z,96950.49
2023-08-29T00:11:34.507Z,96951.79
2023-08-29T00:15:19.297Z,96944.60
2023-08-29T00:18:46.047Z,96934.59
2023-08-29T00:22:41.523Z,96942.76
2023-08-29T00:26:25.910Z,97051.43
2023-08-29T00:30:12.107Z,97089.06
2023-08-29T00:33:37.660Z,97152.79
2023-08-29T00:37:15.564Z,97116.39
2023-08-29T00:40:53.217Z,97114.50
2023-08-29T00:44:31.037Z,97121.59
2023-08-29T00:48:09.972Z,97116.74
2023-08-29T00:51:47.309Z,97071.14
2023-08-29T00:55:27.183Z,97074.30
2023-08-29T00:59:22.668Z,97091.00
2023-08-29T01:02:48.308Z,97083.37
2023-08-29T01:06:28.312Z,97069.80
2023-08-29T01:10:39.527Z,97065.23
2023-08-29T01:14:46.440Z,97044.66
2023-08-29T01:18:32.326Z,97032.55
2023-08-29T01:22:35.661Z,97035.31
2023-08-29T01:26:22.941Z,97026.95
2023-08-29T01:29:50.984Z,97034.92
2023-08-29T01:33:28.580Z,97038.81
2023-08-29T01:37:06.831Z,97032.16
2023-08-29T01:40:45.702Z,97019.02
2023-08-29T01:44:20.800Z,97009.36
2023-08-29T01:47:58.365Z,97015.96
2023-08-29T01:51:56.075Z,97026.20
2023-08-29T01:55:22.393Z,97037.29
2023-08-29T01:59:00.532Z,97038.42
2023-08-29T02:02:37.082Z,97035.19
2023-08-29T02:06:15.533Z,97018.11
2023-08-29T02:09:52.642Z,96988.14
2023-08-29T02:13:49.130Z,96983.55
2023-08-29T02:17:39.170Z,96981.70
2023-08-29T02:21:26.457Z,96989.80
2023-08-29T02:24:53.207Z,97001.27
2023-08-29T02:28:56.312Z,97001.36
2023-08-29T02:32:23.038Z,96991.52
2023-08-29T02:36:01.547Z,96993.61
2023-08-29T02:39:38.083Z,96993.23
2023-08-29T02:43:15.914Z,96983.95
2023-08-29T02:46:53.119Z,96978.69
2023-08-29T02:50:33.537Z,96970.50
2023-08-29T02:54:27.547Z,96958.14
2023-08-29T02:57:52.585Z,96942.92
2023-08-29T03:01:30.158Z,96932.42
2023-08-29T03:05:09.056Z,96916.68
2023-08-29T03:09:04.795Z,96915.77
2023-08-29T03:12:31.322Z,96917.83
2023-08-29T03:16:28.256Z,96911.58
2023-08-29T03:20:14.134Z,96901.85
2023-08-29T03:23:43.271Z,96916.55
2023-08-29T03:27:20.645Z,96919.02
2023-08-29T03:31:18.095Z,96896.30
2023-08-29T03:34:43.416Z,96893.19
2023-08-29T03:38:41.316Z,96899.91
2023-08-29T03:42:08.627Z,96922.17
2023-08-29T03:45:45.756Z,96916.25
2023-08-29T03:49:23.531Z,96920.38
2023-08-29T03:53:01.550Z,96918.79
2023-08-29T03:56:57.778Z,96921.12
2023-08-29T04:00:27.137Z,96912.08
2023-08-29T04:04:01.086Z,96903.18
2023-08-29T04:07:38.501Z,96904.18
2023-08-29T04:11:16.184Z,96903.65
2023-08-29T04:15:14.087Z,96897.86
2023-08-29T04:18:45.493Z,96904.59
2023-08-29T04:22:19.216Z,96905.63
2023-08-29T04:26:04.493Z,96928.41
2023-08-29T04:29:34.302Z,96921.75
2023-08-29T04:33:12.092Z,96947.39
2023-08-29T04:36:49.584Z,96959.34
2023-08-29T04:40:46.444Z,96957.17
2023-08-29T04:44:11.757Z,96948.40
2023-08-29T04:48:10.721Z,96947.95
2023-08-29T04:51:38.124Z,96955.27
2023-08-29T04:55:16.174Z,96955.40
2023-08-29T04:58:53.678Z,96952.27
2023-08-29T05:02:50.319Z,96953.30
2023-08-29T05:06:36.784Z,96951.46
2023-08-29T05:10:02.061Z,96944.67
2023-08-29T05:13:58.761Z,96945.77
2023-08-29T05:17:24.835Z,96941.56
2023-08-29T05:21:03.134Z,96941.45
2023-08-29T05:24:40.179Z,96947.57
2023-08-29T05:28:36.068Z,96936.15
2023-08-29T05:32:02.895Z,96942.38
2023-08-29T05:35:58.947Z,96935.56
2023-08-29T05:39:24.617Z,96931.99
2023-08-29T05:43:01.953Z,96924.66
2023-08-29T05:46:58.278Z,96903.44
2023-08-29T05:50:23.780Z,96901.75
2023-08-29T05:54:01.787Z,96891.34
2023-08-29T05:57:39.135Z,96892.42
2023-08-29T06:01:16.906Z,96905.52
2023-08-29T06:05:15.695Z,96898.88
2023-08-29T06:09:00.408Z,96900.05
2023-08-29T06:12:44.868Z,96907.14
2023-08-29T06:16:10.607Z,96902.49
2023-08-29T06:19:48.370Z,96927.45
2023-08-29T06:23:25.860Z,96937.84
2023-08-29T06:27:22.482Z,96943.52
2023-08-29T06:31:09.099Z,96932.14
2023-08-29T06:34:35.403Z,96933.85
2023-08-29T06:38:14.898Z,96921.59
2023-08-29T06:41:51.499Z,96891.23
2023-08-29T06:45:47.937Z,96922.78
2023-08-29T06:49:13.807Z,96935.68
2023-08-29T06:52:51.926Z,96942.23
2023-08-29T06:56:49.696Z,96982.42
2023-08-29T07:00:25.088Z,97014.29
2023-08-29T07:03:53.606Z,97032.58
2023-08-29T07:07:30.705Z,97023.83
2023-08-29T07:11:08.254Z,97017.06
2023-08-29T07:15:05.883Z,97019.36
2023-08-29T07:18:35.851Z,96993.16
2023-08-29T07:22:23.438Z,97013.08
2023-08-29T07:25:55.185Z,97004.02
2023-08-29T07:29:29.866Z,97001.90
2023-08-29T07:33:07.587Z,96968.08
2023-08-29T07:37:05.530Z,96923.39
2023-08-29T07:56:19.361Z,96788.70
2023-08-29T07:59:57.883Z,96826.16
2023-08-29T08:03:35.972Z,96906.94
2023-08-29T08:07:12.585Z,96907.75
2023-08-29T08:11:09.233Z,96897.23
2023-08-29T08:14:35.012Z,96897.67
2023-08-29T08:18:12.448Z,96898.79
2023-08-29T08:21:54.264Z,96880.36
2023-08-29T08:25:27.825Z,96891.92
2023-08-29T08:29:05.670Z,96896.30
2023-08-29T08:33:01.991Z,96904.27
2023-08-29T08:36:27.753Z,96921.45
2023-08-29T08:40:11.158Z,96950.86
2023-08-29T08:43:44.041Z,96961.80
2023-08-29T08:47:21.045Z,96979.56
2023-08-29T08:50:59.109Z,96992.98
2023-08-29T08:54:36.518Z,96981.87
2023-08-29T08:58:14.194Z,96973.59
2023-08-29T09:01:51.775Z,96963.98
2023-08-29T09:05:29.345Z,96959.98
2023-08-29T09:09:26.316Z,96968.41
2023-08-29T09:13:18.767Z,96972.99
2023-08-29T09:17:04.988Z,96978.34
2023-08-29T09:20:31.017Z,96973.50
2023-08-29T09:24:12.248Z,96989.50
2023-08-29T09:28:11.190Z,97002.46
2023-08-29T09:32:00.580Z,97001.63
2023-08-29T09:35:46.749Z,97005.20
2023-08-29T09:39:31.555Z,96996.69
2023-08-29T09:43:02.388Z,97000.83
2023-08-29T09:46:34.878Z,97009.16
2023-08-29T09:50:12.620Z,97009.40
2023-08-29T09:53:52.419Z,97016.50
2023-08-29T09:57:32.489Z,97010.80
2023-08-29T10:01:09.395Z,97009.58
2023-08-29T10:04:47.543Z,97006.46
2023-08-29T10:08:32.338Z,96997.87
2023-08-29T10:12:19.442Z,97001.45
2023-08-29T10:15:45.522Z,97010.00
2023-08-29T10:19:45.200Z,97015.79
2023-08-29T10:23:12.186Z,97016.60
2023-08-29T10:27:07.202Z,97027.39
2023-08-29T10:30:33.389Z,97037.61
2023-08-29T10:34:31.709Z,97029.30
2023-08-29T10:38:09.439Z,97021.32
2023-08-29T10:41:53.094Z,97035.39
2023-08-29T10:45:21.420Z,97032.30
2023-08-29T10:48:59.442Z,97042.30
2023-08-29T10:52:56.717Z,97045.39
2023-08-29T10:56:45.824Z,97039.27
2023-08-29T11:00:34.389Z,97033.38
2023-08-29T11:04:24.621Z,97026.74
2023-08-29T11:07:51.054Z,97029.88
2023-08-29T11:12:13.401Z,97033.21
2023-08-29T11:15:50.946Z,97032.77
2023-08-29T11:19:20.178Z,97038.06
2023-08-29T11:22:56.136Z,97040.27
2023-08-29T11:26:37.149Z,97043.27
2023-08-29T11:30:42.322Z,97049.39
2023-08-29T11:34:21.769Z,97054.85
2023-08-29T11:37:49.252Z,97056.67
2023-08-29T11:42:01.880Z,97063.84
2023-08-29T11:45:47.707Z,97043.39
2023-08-29T11:49:15.124Z,97029.79
2023-08-29T11:52:42.743Z,97034.40
2023-08-29T11:56:19.997Z,97038.84
2023-08-29T11:59:58.289Z,97031.43
2023-08-29T12:03:54.231Z,97028.04
2023-08-29T12:07:19.808Z,97023.23
2023-08-29T12:11:17.382Z,97012.27
2023-08-29T12:14:50.824Z,96996.81
2023-08-29T12:18:40.361Z,97004.95
2023-08-29T12:22:32.088Z,97030.48
2023-08-29T12:25:59.461Z,97045.13
2023-08-29T12:29:36.011Z,97049.89
2023-08-29T12:33:14.825Z,97059.36
2023-08-29T12:37:14.197Z,97073.63
2023-08-29T12:41:00.434Z,97081.13
2023-08-29T12:44:26.271Z,97076.73
2023-08-29T12:48:04.824Z,97084.70
2023-08-29T12:51:41.860Z,97088.00
2023-08-29T12:55:19.496Z,97064.80
2023-08-29T12:59:15.850Z,97070.60
2023-08-29T13:03:00.916Z,97087.67
2023-08-29T13:06:28.421Z,97098.12
2023-08-29T13:10:06.389Z,97097.19
2023-08-29T13:13:41.902Z,97078.88
2023-08-29T13:17:39.046Z,97069.15
2023-08-29T13:21:05.511Z,97069.52
2023-08-29T13:24:42.493Z,97057.05
2023-08-29T13:28:20.145Z,97050.09
2023-08-29T13:31:57.872Z,97046.23
2023-08-29T13:35:54.793Z,97056.35
2023-08-29T13:39:46.435Z,97060.89
2023-08-29T13:43:11.930Z,97051.33
2023-08-29T13:46:49.782Z,97047.38
2023-08-29T13:50:48.111Z,97045.48
2023-08-29T13:54:15.485Z,97047.30
2023-08-29T13:57:53.567Z,97040.85
2023-08-29T14:01:32.419Z,97035.58
2023-08-29T14:05:10.438Z,97039.40
2023-08-29T14:08:49.314Z,97058.20
2023-08-29T14:12:42.779Z,97071.97
2023-08-29T14:16:29.392Z,97046.60
2023-08-29T14:19:58.097Z,97057.33
2023-08-29T14:23:36.691Z,97069.58
2023-08-29T14:27:10.470Z,97047.36
2023-08-29T14:30:49.481Z,97040.65
2023-08-29T14:34:25.957Z,97045.52
2023-08-29T14:38:22.508Z,97043.81
2023-08-29T14:41:48.208Z,97045.38
2023-08-29T14:45:45.331Z,97038.11
2023-08-29T14:49:10.966Z,97056.70
2023-08-29T14:53:07.429Z,97059.30
2023-08-29T14:56:32.983Z,97066.56
2023-08-29T15:00:12.845Z,97083.34
2023-08-29T15:03:48.789Z,97116.20
2023-08-29T15:07:27.021Z,97171.91
2023-08-29T15:11:22.452Z,97210.02
2023-08-29T15:15:08.033Z,97125.70
2023-08-29T15:18:34.096Z,97118.85
2023-08-29T15:22:29.940Z,97102.48
2023-08-29T15:25:58.893Z,97088.84
2023-08-29T15:29:33.350Z,97110.44
2023-08-29T15:33:11.149Z,97099.73
2023-08-29T15:36:48.730Z,97091.45
2023-08-29T15:40:28.593Z,97095.79
2023-08-29T15:44:04.324Z,97095.01
2023-08-29T15:47:44.026Z,97081.40
2023-08-29T15:51:39.639Z,97074.26
2023-08-29T15:55:24.145Z,97078.67
2023-08-29T15:58:50.240Z,97076.55
2023-08-29T16:02:27.462Z,97065.33
2023-08-29T16:06:24.505Z,97063.41
2023-08-29T16:09:50.114Z,97050.55
2023-08-29T16:13:28.006Z,97049.98
2023-08-29T16:17:06.713Z,97041.82
2023-08-29T16:20:43.383Z,97037.83
2023-08-29T16:24:21.144Z,97040.79
2023-08-29T16:28:00.917Z,97042.37
2023-08-29T16:31:36.281Z,97032.02
2023-08-29T16:35:14.296Z,97039.80
2023-08-29T16:38:51.611Z,97045.42
2023-08-29T16:42:33.860Z,97041.50
2023-08-29T16:46:26.290Z,97037.67
2023-08-29T16:50:11.405Z,97041.95
2023-08-29T16:53:56.413Z,97038.09
2023-08-29T16:57:40.755Z,97036.93
2023-08-29T17:01:25.273Z,97032.55
2023-08-29T17:05:12.657Z,97032.27
2023-08-29T17:08:38.092Z,97025.13
2023-08-29T17:12:19.925Z,97013.09
2023-08-29T17:16:12.261Z,97007.19
2023-08-29T17:19:40.316Z,97004.31
2023-08-29T17:23:18.830Z,97003.34
2023-08-29T17:27:14.285Z,97000.05
2023-08-29T17:31:01.503Z,97003.23
2023-08-29T17:34:45.955Z,97013.00
2023-08-29T17:38:33.019Z,97020.73
2023-08-29T17:41:58.755Z,97027.30
2023-08-29T17:45:45.483Z,97026.31
2023-08-29T17:49:14.260Z,97032.36
2023-08-29T17:52:51.647Z,97025.28
2023-08-29T17:56:40.235Z,97022.29
2023-08-29T18:00:26.115Z,97030.08
2023-08-29T18:03:52.503Z,97046.05
2023-08-29T18:07:31.907Z,97043.09
2023-08-29T18:11:06.742Z,97037.38
2023-08-29T18:14:44.463Z,97034.14
2023-08-29T18:18:24.223Z,97028.33
2023-08-29T18:22:01.151Z,97020.63
2023-08-29T18:25:37.819Z,97015.53
2023-08-29T18:29:34.043Z,97016.27
2023-08-29T18:33:20.145Z,97017.59
2023-08-29T18:36:48.678Z,97021.19
2023-08-29T18:40:23.417Z,97022.83
2023-08-29T18:44:01.291Z,97023.20
2023-08-29T18:47:57.825Z,97013.95
2023-08-29T18:51:23.779Z,97011.67
2023-08-29T18:55:22.601Z,97004.05
2023-08-29T18:58:48.302Z,97003.02
2023-08-29T19:02:26.376Z,97005.66
2023-08-29T19:06:13.052Z,96998.46
2023-08-29T19:10:02.148Z,97000.92
2023-08-29T19:13:30.059Z,96994.31
2023-08-29T19:17:05.601Z,96988.36
2023-08-29T19:20:43.155Z,96982.48
2023-08-29T19:24:43.268Z,96981.77
2023-08-29T19:28:11.414Z,96972.84
2023-08-29T19:32:10.006Z,96962.55
2023-08-29T19:35:36.576Z,96961.77
2023-08-29T19:39:32.615Z,96964.63
2023-08-29T19:42:58.570Z,96981.36
2023-08-29T19:46:38.439Z,96982.17
2023-08-29T19:50:14.240Z,96977.72
2023-08-29T19:54:10.256Z,96976.96
2023-08-29T19:57:55.680Z,96990.33
2023-08-29T20:01:40.899Z,96988.06
2023-08-29T20:05:06.582Z,96990.40
2023-08-29T20:08:44.095Z,96996.02
2023-08-29T20:12:41.138Z,97003.29
2023-08-29T20:16:26.375Z,97001.91
2023-08-29T20:19:53.980Z,96993.73
2023-08-29T20:23:31.711Z,97000.25
2023-08-29T20:27:28.015Z,97006.48
2023-08-29T20:30:54.284Z,96976.95
2023-08-29T20:34:31.223Z,96957.17
2023-08-29T20:38:09.148Z,96981.93
2023-08-29T20:41:46.576Z,96996.65
2023-08-29T20:45:24.610Z,96996.36
2023-08-29T20:49:01.713Z,97005.08
2023-08-29T20:52:58.479Z,97014.10
2023-08-29T20:56:23.943Z,97028.94
2023-08-29T21:00:01.459Z,97028.89
2023-08-29T21:03:58.324Z,97025.48
2023-08-29T21:07:43.739Z,97019.23
2023-08-29T21:11:30.888Z,97011.36
2023-08-29T21:14:56.454Z,97005.43
2023-08-29T21:18:35.520Z,97026.63
2023-08-29T21:22:11.922Z,97048.39
2023-08-29T21:26:08.330Z,97057.46
2023-08-29T21:29:36.065Z,97056.27
2023-08-29T21:33:30.635Z,97032.52
2023-08-29T21:37:14.732Z,97016.02
2023-08-29T21:40:42.214Z,97024.55
2023-08-29T21:44:18.058Z,97012.60
2023-08-29T21:47:56.383Z,96990.70
2023-08-29T21:51:36.658Z,97007.29
2023-08-29T21:55:33.760Z,97030.12
2023-08-29T21:59:20.744Z,97039.10
2023-08-29T22:03:06.295Z,97025.50
2023-08-29T22:06:34.268Z,97012.16
2023-08-29T22:10:20.611Z,97004.92
2023-08-29T22:14:15.246Z,97003.93
2023-08-29T22:17:41.858Z,97005.25
2023-08-29T22:21:37.805Z,97005.84
2023-08-29T22:25:23.336Z,97003.22
2023-08-29T22:29:07.635Z,97011.34
2023-08-29T22:32:34.049Z,97013.23
2023-08-29T22:36:13.319Z,97024.02
2023-08-29T22:39:49.545Z,97036.39
2023-08-29T22:43:27.373Z,97034.38
2023-08-29T22:47:23.207Z,97032.55
2023-08-29T22:50:48.434Z,97017.98
2023-08-29T22:54:26.274Z,97011.42
2023-08-29T22:58:26.533Z,97007.50
2023-08-29T23:01:52.822Z,96998.71
2023-08-29T23:05:49.971Z,96991.13
2023-08-29T23:09:35.152Z,96987.37
2023-08-29T23:13:00.321Z,96996.95
2023-08-29T23:16:59.963Z,97009.35
2023-08-29T23:20:24.902Z,97009.41
2023-08-29T23:24:21.887Z,97005.45
2023-08-29T23:27:48.712Z,97004.27
2023-08-29T23:31:26.288Z,97011.31
2023-08-29T23:35:04.315Z,97008.20
2023-08-29T23:39:01.443Z,97010.52
2023-08-29T23:42:45.971Z,97011.98
2023-08-29T23:46:31.651Z,97006.33
2023-08-29T23:49:57.257Z,97010.40
2023-08-29T23:53:34.684Z,97014.02
2023-08-29T23:57:31.242Z,97010.27
